Time;durP1;ratioP1;P1;durP2;ratioP2;P2;SDS_P1;SDS_P2;PMS_P1;PMS_P2;Temp;Humidity;BMP_temperature;BMP_pressure;BME280_temperature;BME280_humidity;BME280_pressure;Samples;Min_cycle;Max_cycle;Signal;HPM_P1;HPM_P2
2022/09/07 00:00:33;;;;;;;8.23;5.05;;;19.50;99.90;;;;;;4994920;28;20184;-83
2022/09/07 00:02:59;;;;;;;6.20;4.05;;;19.50;99.90;;;;;;4993712;28;20208;-83
2022/09/07 00:05:26;;;;;;;5.47;4.32;;;19.40;99.90;;;;;;4993818;28;20173;-83
2022/09/07 00:07:51;;;;;;;5.25;4.50;;;19.50;99.90;;;;;;4993617;28;20674;-83
2022/09/07 00:10:17;;;;;;;5.43;4.88;;;19.60;99.90;;;;;;4993520;28;20260;-82
2022/09/07 00:12:43;;;;;;;6.57;4.97;;;19.80;99.90;;;;;;4993619;28;20204;-83
2022/09/07 00:15:11;;;;;;;4.88;4.47;;;19.70;99.90;;;;;;4993716;28;20166;-83
2022/09/07 00:17:37;;;;;;;5.72;4.85;;;19.70;99.90;;;;;;4993542;28;20259;-83
2022/09/07 00:20:05;;;;;;;12.00;4.57;;;19.70;99.90;;;;;;4994763;28;20256;-83
2022/09/07 00:22:31;;;;;;;8.35;5.07;;;19.60;99.90;;;;;;4994465;28;20609;-83
2022/09/07 00:24:56;;;;;;;5.70;5.30;;;19.60;99.90;;;;;;4993426;28;20166;-83
2022/09/07 00:27:22;;;;;;;5.97;4.85;;;19.60;99.90;;;;;;4993369;28;20704;-84
2022/09/07 00:29:48;;;;;;;7.65;5.70;;;19.60;99.90;;;;;;4994388;28;20173;-83
2022/09/07 00:32:13;;;;;;;4.88;4.47;;;19.70;99.90;;;;;;4993314;28;20191;-83
2022/09/07 00:34:39;;;;;;;5.30;4.88;;;19.60;99.90;;;;;;4994566;28;20164;-83
2022/09/07 00:37:05;;;;;;;6.20;5.15;;;19.50;99.90;;;;;;4994180;28;20177;-83
2022/09/07 00:39:30;;;;;;;5.15;4.72;;;19.50;99.90;;;;;;4993846;28;20165;-83
2022/09/07 00:41:56;;;;;;;6.43;4.72;;;19.70;99.90;;;;;;4992883;28;20178;-83
2022/09/07 00:44:37;;;;;;;6.10;5.30;;;19.80;99.90;;;;;;4994046;28;20169;-83
2022/09/07 00:47:05;;;;;;;6.75;5.72;;;19.70;99.90;;;;;;4992700;28;20221;-82
2022/09/07 00:49:32;;;;;;;6.15;5.55;;;19.70;99.90;;;;;;4992906;28;20176;-83
2022/09/07 00:52:01;;;;;;;7.70;5.55;;;19.80;99.90;;;;;;4992791;28;20177;-83
2022/09/07 00:54:32;;;;;;;5.63;5.13;;;19.80;99.90;;;;;;4992369;28;20622;-83
2022/09/07 00:56:59;;;;;;;7.95;6.15;;;19.80;99.90;;;;;;4992841;28;20188;-83
2022/09/07 00:59:33;;;;;;;5.80;5.40;;;19.80;99.90;;;;;;4994293;28;20210;-83
2022/09/07 01:01:59;;;;;;;6.93;5.97;;;19.70;99.90;;;;;;4994012;28;20169;-84
2022/09/07 01:04:25;;;;;;;5.53;5.10;;;19.70;99.90;;;;;;4992636;28;20180;-83
2022/09/07 01:06:53;;;;;;;7.35;6.00;;;19.70;99.90;;;;;;4993621;28;20205;-84
2022/09/07 01:09:22;;;;;;;7.07;6.32;;;19.80;99.90;;;;;;4993643;28;20162;-83
2022/09/07 01:11:49;;;;;;;7.97;6.13;;;19.70;99.90;;;;;;4993721;28;20165;-82
2022/09/07 01:14:23;;;;;;;6.55;5.95;;;20.00;99.90;;;;;;4992467;28;20191;-83
2022/09/07 01:17:14;;;;;;;8.18;6.10;;;20.00;99.90;;;;;;4993621;28;20174;-84
2022/09/07 01:20:09;;;;;;;8.30;6.28;;;20.00;99.90;;;;;;4993879;28;20653;-83
2022/09/07 01:23:13;;;;;;;6.93;6.15;;;20.10;99.90;;;;;;4965078;28;20677;-84
2022/09/07 01:26:20;;;;;;;8.60;5.70;;;20.00;99.90;;;;;;4991984;28;20231;-83
2022/09/07 01:28:55;;;;;;;8.75;5.75;;;20.20;99.90;;;;;;4941190;28;20643;-82
2022/09/07 01:31:39;;;;;;;6.18;5.68;;;20.10;99.90;;;;;;4993533;28;20175;-83
2022/09/07 01:34:17;;;;;;;7.75;5.80;;;19.90;99.90;;;;;;4992080;28;20987;-83
2022/09/07 01:36:54;;;;;;;6.53;6.03;;;19.90;99.90;;;;;;4993436;28;20534;-83
2022/09/07 01:39:26;;;;;;;7.97;6.57;;;20.00;99.90;;;;;;4992156;28;20180;-82
2022/09/07 01:41:57;;;;;;;7.13;6.53;;;20.10;99.90;;;;;;4992306;28;20177;-83
2022/09/07 01:44:30;;;;;;;8.63;6.95;;;20.10;99.90;;;;;;4992188;28;20271;-83
2022/09/07 01:47:20;;;;;;;7.97;7.30;;;20.10;99.90;;;;;;4993436;28;20204;-83
2022/09/07 01:49:51;;;;;;;8.05;7.45;;;20.10;99.90;;;;;;4993274;28;20177;-83
2022/09/07 01:52:41;;;;;;;10.50;7.45;;;20.20;99.90;;;;;;4991950;28;20197;-83
2022/09/07 01:55:12;;;;;;;8.40;7.70;;;20.00;99.90;;;;;;4992941;28;20184;-83
2022/09/07 01:57:59;;;;;;;9.25;8.45;;;20.10;99.90;;;;;;4991492;28;20177;-83
2022/09/07 02:00:25;;;;;;;8.32;7.70;;;20.10;99.90;;;;;;4992203;28;20176;-83
2022/09/07 02:03:08;;;;;;;9.90;8.57;;;20.10;99.90;;;;;;4993126;28;20185;-83
2022/09/07 02:06:14;;;;;;;8.85;8.05;;;20.10;99.90;;;;;;4991965;28;20195;-83
2022/09/07 02:08:47;;;;;;;9.32;8.63;;;20.20;99.90;;;;;;4991247;28;20189;-83
2022/09/07 02:11:19;;;;;;;10.43;9.57;;;19.90;99.90;;;;;;4991817;28;20176;-83
2022/09/07 02:13:53;;;;;;;10.68;9.80;;;19.80;99.90;;;;;;4992666;28;20188;-83
2022/09/07 02:16:26;;;;;;;11.23;9.90;;;19.80;99.90;;;;;;4991740;28;20172;-83
2022/09/07 02:19:07;;;;;;;12.05;10.35;;;19.90;99.90;;;;;;4991907;28;20169;-82
2022/09/07 02:21:45;;;;;;;10.88;9.88;;;19.80;99.90;;;;;;4993062;28;20630;-82
2022/09/07 02:24:28;;;;;;;12.85;10.55;;;19.70;99.90;;;;;;4991242;28;20278;-83
2022/09/07 02:26:56;;;;;;;14.50;10.50;;;19.60;99.90;;;;;;4991533;28;20263;-82
2022/09/07 02:29:22;;;;;;;11.05;10.15;;;19.50;99.90;;;;;;4991672;28;20637;-82
2022/09/07 02:31:50;;;;;;;11.55;10.25;;;19.30;99.90;;;;;;4991507;28;20165;-83
2022/09/07 02:34:16;;;;;;;11.57;10.50;;;19.10;99.90;;;;;;4991374;28;20813;-83
2022/09/07 02:36:47;;;;;;;11.00;10.00;;;19.20;99.90;;;;;;4992642;28;20172;-84
2022/09/07 02:39:13;;;;;;;16.13;10.13;;;19.30;99.90;;;;;;4992851;28;20188;-82
2022/09/07 02:41:41;;;;;;;11.80;10.70;;;19.30;99.90;;;;;;4991461;28;20216;-83
2022/09/07 02:44:30;;;;;;;10.98;9.95;;;19.40;99.90;;;;;;4991474;28;20196;-83
2022/09/07 02:47:11;;;;;;;10.77;9.35;;;19.40;99.90;;;;;;4991340;28;20243;-83
2022/09/07 02:50:14;;;;;;;12.40;10.05;;;19.40;99.90;;;;;;4991350;28;20285;-83
2022/09/07 02:53:03;;;;;;;10.68;9.55;;;19.60;99.90;;;;;;4991393;28;20228;-83
2022/09/07 02:56:05;;;;;;;10.35;9.20;;;19.50;99.90;;;;;;4991508;28;20220;-82
2022/09/07 02:59:05;;;;;;;11.13;10.20;;;19.30;99.90;;;;;;4991358;28;20189;-83
2022/09/07 03:01:41;;;;;;;10.05;9.25;;;19.30;99.90;;;;;;4992932;28;20180;-83
2022/09/07 03:04:22;;;;;;;10.20;9.23;;;19.30;99.90;;;;;;4996152;28;20185;-83
2022/09/07 03:07:02;;;;;;;9.98;9.07;;;19.40;99.90;;;;;;4996126;28;20573;-83
2022/09/07 03:09:34;;;;;;;11.77;10.23;;;19.40;99.90;;;;;;4994805;28;20244;-83
2022/09/07 03:12:04;;;;;;;14.52;8.95;;;19.50;99.90;;;;;;4995685;28;20176;-83
2022/09/07 03:14:32;;;;;;;12.15;9.18;;;19.60;99.90;;;;;;4995853;28;20641;-83
2022/09/07 03:16:59;;;;;;;9.93;9.02;;;19.60;99.90;;;;;;4994621;28;20173;-83
2022/09/07 03:19:25;;;;;;;12.70;8.85;;;19.40;99.90;;;;;;4995833;28;20180;-83
2022/09/07 03:21:51;;;;;;;9.82;9.05;;;19.30;99.90;;;;;;4996022;28;20252;-83
2022/09/07 03:24:17;;;;;;;9.63;8.68;;;19.40;99.90;;;;;;4994333;28;20189;-83
2022/09/07 03:26:47;;;;;;;9.93;9.18;;;19.40;99.90;;;;;;4994496;28;20216;-83
2022/09/07 03:29:13;;;;;;;15.15;9.65;;;19.30;99.90;;;;;;4994671;28;20647;-83
2022/09/07 03:31:39;;;;;;;12.73;9.25;;;19.40;99.90;;;;;;4995478;28;20165;-83
2022/09/07 03:34:05;;;;;;;14.63;9.60;;;19.30;99.90;;;;;;4993970;28;20211;-83
2022/09/07 03:36:31;;;;;;;16.13;9.73;;;19.40;99.90;;;;;;4994260;28;20169;-83
2022/09/07 03:38:58;;;;;;;10.65;9.05;;;19.30;99.90;;;;;;4995420;28;20260;-83
2022/09/07 03:41:24;;;;;;;12.50;8.93;;;19.20;99.90;;;;;;4995746;28;20165;-84
2022/09/07 03:43:50;;;;;;;11.45;10.30;;;19.30;99.90;;;;;;4994108;28;20185;-84
2022/09/07 03:46:19;;;;;;;15.45;10.52;;;19.30;99.90;;;;;;4994203;28;20247;-83
2022/09/07 03:48:47;;;;;;;13.20;10.23;;;19.30;99.90;;;;;;4993812;28;21233;-83
2022/09/07 03:51:14;;;;;;;12.98;9.90;;;19.20;99.90;;;;;;4993835;28;20173;-82
2022/09/07 03:53:42;;;;;;;10.18;9.25;;;19.00;99.90;;;;;;4995053;28;20189;-82
2022/09/07 03:56:11;;;;;;;19.17;9.35;;;19.10;99.90;;;;;;4993883;28;20220;-82
2022/09/07 03:58:37;;;;;;;11.35;10.35;;;19.10;99.90;;;;;;4994483;28;20188;-83
2022/09/07 04:01:08;;;;;;;13.68;10.13;;;19.00;99.90;;;;;;4994035;28;20660;-83
2022/09/07 04:03:34;;;;;;;15.23;11.00;;;19.10;99.90;;;;;;4994378;28;20284;-83
2022/09/07 04:06:01;;;;;;;11.65;10.50;;;19.20;99.90;;;;;;4995095;28;20169;-83
2022/09/07 04:08:28;;;;;;;11.25;9.98;;;19.30;99.90;;;;;;4994813;28;20173;-82
2022/09/07 04:10:58;;;;;;;10.93;9.52;;;19.30;99.90;;;;;;4995016;28;20405;-83
2022/09/07 04:13:26;;;;;;;11.55;9.98;;;19.30;99.90;;;;;;4993816;28;20285;-83
2022/09/07 04:15:52;;;;;;;13.85;11.00;;;19.50;99.90;;;;;;4993860;28;20201;-83
2022/09/07 04:18:17;;;;;;;12.77;11.48;;;19.60;99.90;;;;;;4994734;28;20181;-83
2022/09/07 04:20:43;;;;;;;14.50;11.35;;;19.80;99.90;;;;;;4995007;28;20169;-83
2022/09/07 04:23:09;;;;;;;13.32;12.02;;;19.80;99.90;;;;;;4993400;28;20293;-84
2022/09/07 04:25:35;;;;;;;13.93;12.63;;;19.90;99.90;;;;;;4993444;28;20260;-83
2022/09/07 04:28:01;;;;;;;15.32;12.95;;;19.90;99.90;;;;;;4993591;28;20662;-83
2022/09/07 04:30:26;;;;;;;15.48;13.40;;;19.80;99.90;;;;;;4994829;28;20220;-82
2022/09/07 04:32:52;;;;;;;16.15;13.30;;;19.80;99.90;;;;;;4993300;28;20189;-82
2022/09/07 04:35:17;;;;;;;16.48;13.40;;;19.90;99.90;;;;;;4993284;28;20622;-82
2022/09/07 04:37:43;;;;;;;18.23;13.00;;;19.90;99.90;;;;;;4992760;28;20569;-83
2022/09/07 04:40:09;;;;;;;15.45;13.95;;;20.00;99.90;;;;;;4992749;28;20292;-84
2022/09/07 04:42:35;;;;;;;15.27;13.77;;;20.00;99.90;;;;;;4993126;28;20596;-83
2022/09/07 04:45:01;;;;;;;17.55;14.15;;;19.90;99.90;;;;;;4994475;28;20180;-84
2022/09/07 04:47:29;;;;;;;14.38;12.95;;;20.00;99.90;;;;;;4994467;28;20213;-83
2022/09/07 04:49:55;;;;;;;15.68;13.13;;;19.90;99.90;;;;;;4994638;28;20169;-84
2022/09/07 04:52:21;;;;;;;13.20;11.90;;;19.90;99.90;;;;;;4994541;28;20201;-81
2022/09/07 04:54:50;;;;;;;14.20;12.73;;;19.90;99.90;;;;;;4998321;28;20231;-82
2022/09/07 04:57:24;;;;;;;14.55;13.15;;;20.00;99.90;;;;;;4997151;28;20302;-83
2022/09/07 04:59:51;;;;;;;17.02;13.30;;;20.10;99.90;;;;;;5014933;28;20159;-85
2022/09/07 05:02:16;;;;;;;16.27;12.43;;;20.20;99.90;;;;;;4999136;28;20208;-85
2022/09/07 05:04:42;;;;;;;13.88;12.13;;;20.10;99.90;;;;;;4996008;28;20197;-84
2022/09/07 05:07:08;;;;;;;13.02;11.40;;;20.10;99.90;;;;;;4993543;28;20220;-84
2022/09/07 05:09:34;;;;;;;13.80;10.68;;;20.20;99.90;;;;;;5003555;28;20165;-83
2022/09/07 05:11:59;;;;;;;12.73;10.95;;;20.10;99.90;;;;;;4999508;28;20261;-82
2022/09/07 05:14:25;;;;;;;11.85;10.82;;;20.00;99.90;;;;;;4995723;28;20642;-83
2022/09/07 05:16:50;;;;;;;11.43;10.32;;;20.10;99.90;;;;;;4995419;28;20192;-83
2022/09/07 05:19:16;;;;;;;12.55;10.32;;;20.10;99.90;;;;;;4993827;28;20227;-85
2022/09/07 05:21:41;;;;;;;11.38;10.18;;;20.20;99.90;;;;;;4996006;28;20185;-85
2022/09/07 05:24:08;;;;;;;14.50;10.27;;;20.10;99.90;;;;;;4994311;28;20189;-85
2022/09/07 05:26:35;;;;;;;16.98;10.02;;;20.20;99.90;;;;;;4994524;28;20201;-82
2022/09/07 05:29:03;;;;;;;18.08;11.13;;;20.30;99.90;;;;;;4995345;28;20177;-82
2022/09/07 05:31:29;;;;;;;14.30;10.55;;;20.40;99.90;;;;;;4994731;28;20165;-83
2022/09/07 05:33:59;;;;;;;16.83;10.02;;;20.30;99.90;;;;;;4992879;28;20189;-86
2022/09/07 05:36:26;;;;;;;12.82;9.90;;;20.30;99.90;;;;;;4993391;28;20605;-82
2022/09/07 05:38:57;;;;;;;14.85;10.70;;;20.10;99.90;;;;;;4993673;28;20256;-82
2022/09/07 05:41:25;;;;;;;12.63;10.77;;;20.10;99.90;;;;;;4993292;28;20169;-83
2022/09/07 05:43:51;;;;;;;13.55;11.10;;;20.20;99.90;;;;;;4992748;28;20228;-84
2022/09/07 05:46:17;;;;;;;13.60;12.15;;;20.20;99.90;;;;;;4992435;28;20274;-82
2022/09/07 05:48:44;;;;;;;18.20;11.93;;;20.00;99.90;;;;;;4994374;28;20271;-84
2022/09/07 05:51:11;;;;;;;13.60;12.18;;;19.80;99.90;;;;;;4994398;28;20200;-83
2022/09/07 05:53:39;;;;;;;16.17;12.60;;;19.80;99.90;;;;;;4994314;28;20193;-85
2022/09/07 05:56:06;;;;;;;20.65;13.57;;;19.60;99.90;;;;;;4994446;28;20185;-84
2022/09/07 05:58:32;;;;;;;23.15;13.40;;;19.70;99.90;;;;;;4992231;28;20171;-82
2022/09/07 06:01:09;;;;;;;24.85;13.82;;;19.50;99.90;;;;;;4993148;28;20200;-83
2022/09/07 06:03:37;;;;;;;16.15;13.20;;;19.40;99.90;;;;;;4992012;28;20184;-82
2022/09/07 06:06:05;;;;;;;18.88;13.10;;;19.50;99.90;;;;;;4992016;28;20173;-85
2022/09/07 06:08:32;;;;;;;21.77;14.40;;;19.40;99.90;;;;;;4992295;28;20177;-83
2022/09/07 06:10:58;;;;;;;16.02;12.90;;;19.50;99.90;;;;;;4993024;28;20615;-82
2022/09/07 06:13:24;;;;;;;18.40;14.05;;;19.40;99.90;;;;;;4991084;28;20216;-82
2022/09/07 06:15:50;;;;;;;18.50;13.93;;;19.50;99.90;;;;;;4991245;28;20168;-83
2022/09/07 06:18:15;;;;;;;26.60;14.55;;;19.60;99.90;;;;;;4991376;28;20169;-82
2022/09/07 06:20:41;;;;;;;79.63;20.33;;;19.60;99.90;;;;;;4992384;28;20184;-83
2022/09/07 06:23:06;;;;;;;45.30;14.77;;;19.60;99.90;;;;;;4992474;28;20598;-82
2022/09/07 06:25:32;;;;;;;20.50;13.98;;;19.80;99.90;;;;;;4991198;28;20573;-83
2022/09/07 06:27:58;;;;;;;14.95;13.43;;;19.90;99.90;;;;;;4993382;28;20205;-81
2022/09/07 06:30:24;;;;;;;14.77;12.80;;;19.90;99.90;;;;;;4992257;28;20188;-84
2022/09/07 06:32:50;;;;;;;20.23;13.20;;;20.00;99.90;;;;;;4991052;28;20299;-82
2022/09/07 06:35:16;;;;;;;16.90;12.75;;;20.00;99.90;;;;;;4990681;28;20203;-84
2022/09/07 06:37:42;;;;;;;34.00;13.20;;;20.00;99.90;;;;;;4994399;28;20268;-83
2022/09/07 06:40:09;;;;;;;30.77;14.15;;;19.80;99.90;;;;;;4996031;28;20625;-83
2022/09/07 06:42:35;;;;;;;15.65;12.27;;;20.00;99.90;;;;;;4995527;28;20566;-82
2022/09/07 06:45:01;;;;;;;22.60;12.95;;;20.10;99.90;;;;;;4996683;28;20184;-83
2022/09/07 06:47:26;;;;;;;19.13;12.15;;;20.20;99.90;;;;;;4994965;28;20220;-83
2022/09/07 06:49:52;;;;;;;16.63;11.45;;;20.30;99.90;;;;;;4997111;28;20174;-82
2022/09/07 06:52:17;;;;;;;15.40;11.73;;;20.50;99.90;;;;;;4996318;28;20192;-81
2022/09/07 06:54:43;;;;;;;20.13;11.90;;;20.50;99.90;;;;;;4994475;28;20204;-80
2022/09/07 06:57:09;;;;;;;25.45;12.55;;;20.50;99.90;;;;;;4995845;28;20645;-80
2022/09/07 06:59:34;;;;;;;20.33;12.25;;;20.40;99.90;;;;;;4994930;28;20177;-79
2022/09/07 07:02:00;;;;;;;15.60;10.90;;;20.40;99.90;;;;;;4996371;28;20180;-79
2022/09/07 07:04:26;;;;;;;15.48;9.57;;;20.40;99.90;;;;;;4995939;28;20158;-79
2022/09/07 07:06:51;;;;;;;20.88;10.63;;;20.50;99.90;;;;;;4996059;28;20291;-78
2022/09/07 07:09:17;;;;;;;16.63;10.18;;;20.50;99.90;;;;;;4996283;28;20231;-79
2022/09/07 07:11:46;;;;;;;15.85;9.85;;;20.50;99.90;;;;;;4995643;28;20161;-81
2022/09/07 07:14:15;;;;;;;14.38;9.38;;;20.80;99.90;;;;;;4995297;28;20654;-80
2022/09/07 07:16:41;;;;;;;17.85;8.05;;;20.90;99.90;;;;;;4995093;28;20630;-81
2022/09/07 07:19:07;;;;;;;21.42;8.20;;;20.90;99.90;;;;;;4993752;28;20172;-80
2022/09/07 07:21:32;;;;;;;8.55;7.55;;;21.00;99.90;;;;;;4994043;28;20607;-83
2022/09/07 07:23:58;;;;;;;9.35;7.45;;;21.10;99.90;;;;;;4992967;28;20259;-81
2022/09/07 07:26:25;;;;;;;12.32;6.10;;;21.00;99.90;;;;;;4993682;28;20197;-80
2022/09/07 07:28:53;;;;;;;6.60;5.72;;;21.00;99.90;;;;;;4995618;28;20184;-82
2022/09/07 07:31:21;;;;;;;23.92;6.28;;;21.10;99.90;;;;;;4994909;28;20284;-82
2022/09/07 07:33:48;;;;;;;9.00;6.10;;;21.00;99.90;;;;;;4995320;28;20682;-82
2022/09/07 07:36:25;;;;;;;8.13;4.88;;;21.10;99.90;;;;;;4993956;28;20534;-82
2022/09/07 07:38:53;;;;;;;11.98;5.53;;;21.10;99.90;;;;;;4993799;28;20184;-82
2022/09/07 07:41:21;;;;;;;10.18;5.30;;;21.10;99.90;;;;;;4993904;28;20585;-81
2022/09/07 07:43:47;;;;;;;8.95;4.38;;;21.40;99.90;;;;;;4994419;28;20197;-81
2022/09/07 07:46:14;;;;;;;10.27;3.90;;;21.40;99.90;;;;;;4994625;28;20176;-81
2022/09/07 07:48:40;;;;;;;6.25;4.03;;;21.40;99.90;;;;;;4994927;28;20252;-81
2022/09/07 07:51:09;;;;;;;9.65;3.95;;;21.50;99.90;;;;;;4995177;28;20583;-82
2022/09/07 07:53:36;;;;;;;12.52;4.60;;;21.60;99.90;;;;;;4995069;28;20545;-80
2022/09/07 07:56:03;;;;;;;7.72;3.97;;;21.60;99.90;;;;;;4994808;28;20252;-82
2022/09/07 07:58:30;;;;;;;11.18;3.83;;;21.60;99.90;;;;;;4995078;28;20205;-81
2022/09/07 08:01:09;;;;;;;5.78;4.40;;;21.60;99.90;;;;;;4994701;28;20172;-81
2022/09/07 08:03:37;;;;;;;5.97;3.58;;;21.70;99.90;;;;;;4995334;28;20255;-82
2022/09/07 08:06:12;;;;;;;4.88;3.22;;;21.90;99.90;;;;;;4995348;28;20161;-82
2022/09/07 08:08:38;;;;;;;8.07;4.53;;;22.20;99.90;;;;;;4993556;28;20722;-81
2022/09/07 08:11:07;;;;;;;10.50;3.83;;;22.30;99.90;;;;;;4993832;28;20561;-81
2022/09/07 08:13:37;;;;;;;9.27;3.40;;;22.50;99.90;;;;;;4997099;28;20184;-82
2022/09/07 08:16:04;;;;;;;13.40;3.13;;;22.70;99.90;;;;;;5014524;28;20256;-83
2022/09/07 08:18:31;;;;;;;10.00;2.50;;;22.80;99.90;;;;;;5015005;28;20246;-85
2022/09/07 08:21:01;;;;;;;6.60;2.22;;;22.80;99.90;;;;;;5015487;28;20176;-84
2022/09/07 08:23:27;;;;;;;12.18;3.15;;;23.00;99.90;;;;;;5014364;28;20188;-85
2022/09/07 08:25:54;;;;;;;16.67;2.38;;;22.90;99.90;;;;;;5014632;28;20506;-84
2022/09/07 08:28:22;;;;;;;5.25;2.00;;;23.00;99.90;;;;;;5014345;28;20230;-84
2022/09/07 08:30:47;;;;;;;5.93;2.30;;;23.00;99.90;;;;;;5014123;28;20223;-83
2022/09/07 08:33:13;;;;;;;4.95;2.00;;;22.80;99.90;;;;;;5014629;28;20224;-84
2022/09/07 08:35:39;;;;;;;3.30;1.63;;;22.80;99.90;;;;;;5013711;28;20306;-84
2022/09/07 08:38:05;;;;;;;4.80;1.70;;;22.80;99.90;;;;;;5013865;28;20700;-85
2022/09/07 08:40:35;;;;;;;6.35;2.25;;;22.80;99.90;;;;;;5013797;28;20183;-84
2022/09/07 08:43:13;;;;;;;4.75;1.75;;;22.90;99.90;;;;;;5013750;28;20246;-90
2022/09/07 08:45:54;;;;;;;7.93;1.80;;;23.20;99.90;;;;;;5014469;28;20262;-83
2022/09/07 08:48:28;;;;;;;6.57;2.67;;;23.40;99.90;;;;;;5014776;28;20315;-83
2022/09/07 08:51:08;;;;;;;5.05;1.77;;;23.60;99.90;;;;;;5013867;28;20164;-83
2022/09/07 08:53:41;;;;;;;2.88;1.90;;;23.60;99.90;;;;;;5013207;28;20192;-82
2022/09/07 08:56:11;;;;;;;15.48;3.13;;;23.50;99.90;;;;;;5013297;28;20244;-83
2022/09/07 08:58:43;;;;;;;7.63;1.77;;;23.20;99.90;;;;;;5012567;28;20173;-83
2022/09/07 09:01:13;;;;;;;7.55;2.45;;;23.10;99.90;;;;;;5015964;28;20177;-84
2022/09/07 09:03:39;;;;;;;5.35;2.03;;;23.20;99.90;;;;;;5012824;28;20192;-82
2022/09/07 09:06:21;;;;;;;5.93;2.00;;;23.50;99.90;;;;;;5014042;28;20176;-85
2022/09/07 09:09:03;;;;;;;8.23;1.90;;;23.40;99.90;;;;;;5014800;28;20172;-83
2022/09/07 09:11:46;;;;;;;3.20;1.90;;;23.30;99.90;;;;;;5012818;28;20521;-84
2022/09/07 09:14:28;;;;;;;19.55;2.90;;;23.40;99.90;;;;;;5012644;28;20196;-87
2022/09/07 09:17:01;;;;;;;6.55;2.13;;;23.40;99.90;;;;;;5012523;28;20576;-84
2022/09/07 09:19:38;;;;;;;12.48;3.30;;;23.40;99.90;;;;;;5013164;28;20164;-85
2022/09/07 09:22:16;;;;;;;13.73;1.95;;;23.40;99.90;;;;;;5012460;28;20212;-84
2022/09/07 09:24:58;;;;;;;4.65;2.05;;;23.70;99.90;;;;;;5012235;28;20160;-85
2022/09/07 09:27:24;;;;;;;6.00;2.03;;;23.70;99.90;;;;;;5013706;28;20219;-85
2022/09/07 09:29:50;;;;;;;8.65;2.00;;;23.80;99.90;;;;;;5012953;28;20168;-85
2022/09/07 09:32:38;;;;;;;3.58;1.75;;;23.90;99.90;;;;;;5012756;28;20627;-86
2022/09/07 09:35:11;;;;;;;5.07;1.33;;;24.00;99.90;;;;;;5012401;28;20255;-85
2022/09/07 09:37:39;;;;;;;8.90;1.50;;;24.40;99.90;;;;;;5012979;28;20243;-86
2022/09/07 09:40:08;;;;;;;2.92;1.45;;;24.60;99.90;;;;;;5014701;28;20192;-88
2022/09/07 09:42:37;;;;;;;10.85;1.35;;;24.70;99.90;;;;;;5013244;28;20207;-87
2022/09/07 09:45:11;;;;;;;3.10;1.30;;;24.90;99.90;;;;;;5013822;28;20164;-86
2022/09/07 09:47:37;;;;;;;6.85;1.45;;;25.00;99.90;;;;;;5014473;28;20587;-87
2022/09/07 09:50:23;;;;;;;7.05;1.58;;;25.20;99.90;;;;;;5016074;28;20171;-86
2022/09/07 09:52:50;;;;;;;7.13;2.13;;;25.20;99.90;;;;;;5015836;28;20188;-86
2022/09/07 09:55:23;;;;;;;4.30;1.15;;;25.00;99.90;;;;;;5015261;28;20641;-86
2022/09/07 09:57:53;;;;;;;11.88;1.42;;;24.70;99.90;;;;;;5013412;28;20223;-85
2022/09/07 10:00:22;;;;;;;9.25;1.50;;;24.80;99.90;;;;;;5028542;28;20175;-85
2022/09/07 10:03:11;;;;;;;4.50;0.98;;;24.80;99.90;;;;;;5017924;28;20195;-87
2022/09/07 10:05:40;;;;;;;4.28;1.38;;;24.90;99.90;;;;;;4991764;28;20195;-86
2022/09/07 10:08:25;;;;;;;3.50;1.05;;;24.90;99.90;;;;;;5012430;28;20204;-87
2022/09/07 10:11:10;;;;;;;6.70;1.00;;;25.20;99.90;;;;;;5013044;28;20183;-86
2022/09/07 10:13:56;;;;;;;15.20;1.77;;;25.20;99.90;;;;;;5016792;28;20191;-85
2022/09/07 10:16:48;;;;;;;3.10;1.30;;;25.30;99.90;;;;;;5016344;28;20255;-86
2022/09/07 10:19:41;;;;;;;3.80;1.05;;;25.40;99.90;;;;;;5013713;28;20239;-85
2022/09/07 10:22:29;;;;;;;7.65;1.63;;;25.30;99.90;;;;;;5023552;28;20196;-85
2022/09/07 10:24:55;;;;;;;4.22;1.10;;;25.40;99.90;;;;;;5037828;28;20192;-85
2022/09/07 10:27:36;;;;;;;3.38;1.27;;;25.40;99.90;;;;;;5036973;28;20222;-85
2022/09/07 10:30:10;;;;;;;1.30;0.80;;;25.50;99.90;;;;;;5039085;28;20224;-84
2022/09/07 10:32:50;;;;;;;7.55;1.20;;;25.70;99.90;;;;;;5039874;28;20176;-85
2022/09/07 10:35:22;;;;;;;6.22;1.35;;;25.70;99.90;;;;;;5039686;28;20227;-81
2022/09/07 10:38:16;;;;;;;6.07;1.30;;;25.50;99.90;;;;;;5037139;28;20177;-82
2022/09/07 10:41:06;;;;;;;2.47;1.10;;;25.50;99.90;;;;;;5019955;28;20290;-82
2022/09/07 10:43:34;;;;;;;4.95;0.80;;;25.40;99.90;;;;;;5016708;28;20191;-82
2022/09/07 10:46:26;;;;;;;7.05;1.52;;;25.50;99.90;;;;;;5017153;28;20176;-82
2022/09/07 10:49:04;;;;;;;7.05;1.20;;;25.50;99.90;;;;;;5007550;28;20588;-82
2022/09/07 10:52:01;;;;;;;7.93;1.13;;;25.50;99.90;;;;;;5021385;28;20176;-83
2022/09/07 10:54:45;;;;;;;5.30;1.17;;;25.40;99.90;;;;;;5017000;28;20168;-83
2022/09/07 10:57:46;;;;;;;5.40;1.40;;;25.20;99.90;;;;;;5015369;28;20188;-84
2022/09/07 11:00:18;;;;;;;4.35;1.50;;;25.10;99.90;;;;;;5015943;28;20195;-83
2022/09/07 11:02:58;;;;;;;5.13;1.52;;;25.20;99.90;;;;;;5014738;28;20184;-83
2022/09/07 11:05:47;;;;;;;9.05;1.55;;;25.40;99.90;;;;;;5015192;28;20506;-84
2022/09/07 11:08:22;;;;;;;9.35;1.08;;;25.50;99.90;;;;;;5014454;28;20680;-83
2022/09/07 11:11:08;;;;;;;3.65;1.10;;;25.50;99.90;;;;;;5014989;28;20195;-86
2022/09/07 11:13:39;;;;;;;11.45;1.00;;;25.70;99.90;;;;;;5015926;28;20193;-83
2022/09/07 11:16:14;;;;;;;4.03;1.25;;;25.90;99.90;;;;;;5014481;28;20200;-82
2022/09/07 11:18:52;;;;;;;4.25;1.38;;;26.00;99.90;;;;;;5014230;28;20636;-83
2022/09/07 11:21:23;;;;;;;2.33;1.25;;;26.10;99.90;;;;;;5013901;28;20632;-83
2022/09/07 11:23:57;;;;;;;1.95;0.73;;;26.20;99.90;;;;;;5015196;28;20727;-83
2022/09/07 11:26:30;;;;;;;2.03;0.88;;;26.30;99.90;;;;;;5014922;28;20220;-85
2022/09/07 11:29:18;;;;;;;3.20;1.42;;;26.50;99.90;;;;;;5013711;28;20176;-81
2022/09/07 11:32:25;;;;;;;6.85;1.10;;;26.50;99.90;;;;;;5014899;28;20168;-81
2022/09/07 11:35:04;;;;;;;4.85;1.13;;;26.50;99.90;;;;;;4973178;28;20248;-81
2022/09/07 11:37:41;;;;;;;2.88;1.33;;;26.40;99.90;;;;;;4973357;28;20173;-81
2022/09/07 11:40:25;;;;;;;8.35;1.40;;;26.10;99.90;;;;;;5000667;28;20223;-80
2022/09/07 11:43:20;;;;;;;11.05;1.52;;;26.20;99.90;;;;;;5014449;28;20184;-81
2022/09/07 11:46:12;;;;;;;5.80;1.40;;;26.30;99.90;;;;;;5013469;28;20555;-81
2022/09/07 11:48:40;;;;;;;6.55;1.30;;;26.30;99.90;;;;;;5014386;28;20206;-80
2022/09/07 11:51:47;;;;;;;4.10;1.55;;;26.30;99.90;;;;;;5014776;28;20168;-83
2022/09/07 11:54:36;;;;;;;2.08;1.00;;;26.50;99.90;;;;;;4993823;28;20250;-84
2022/09/07 11:57:17;;;;;;;4.38;1.50;;;26.50;99.90;;;;;;5014733;28;20231;-84
2022/09/07 12:00:02;;;;;;;2.30;1.02;;;26.10;99.90;;;;;;5015521;28;20183;-86
2022/09/07 12:03:07;;;;;;;12.55;1.55;;;26.30;99.90;;;;;;5015915;28;20677;-83
2022/09/07 12:05:48;;;;;;;6.78;1.30;;;26.50;99.90;;;;;;5011520;28;20267;-82
2022/09/07 12:08:23;;;;;;;10.75;1.60;;;26.60;99.90;;;;;;5012560;28;20558;-85
2022/09/07 12:10:57;;;;;;;9.13;1.20;;;26.60;99.90;;;;;;5013629;28;20168;-84
2022/09/07 12:13:50;;;;;;;4.50;1.30;;;26.60;99.90;;;;;;5014948;28;20200;-83
2022/09/07 12:16:31;;;;;;;8.10;1.38;;;26.40;99.90;;;;;;5013461;28;20531;-82
2022/09/07 12:19:12;;;;;;;4.30;1.02;;;26.60;99.90;;;;;;5014488;28;20637;-83
2022/09/07 12:21:52;;;;;;;7.43;1.05;;;26.50;99.90;;;;;;5014422;28;20219;-82
2022/09/07 12:24:42;;;;;;;2.65;0.93;;;26.50;99.90;;;;;;5012503;28;20212;-82
2022/09/07 12:27:20;;;;;;;4.07;1.10;;;26.60;99.90;;;;;;5012747;28;20722;-82
2022/09/07 12:30:06;;;;;;;4.90;1.08;;;26.60;99.90;;;;;;5012713;28;20180;-82
2022/09/07 12:32:47;;;;;;;15.23;1.35;;;26.70;99.90;;;;;;5013633;28;20234;-81
2022/09/07 12:35:37;;;;;;;1.88;1.17;;;26.70;99.90;;;;;;5013606;28;20168;-82
2022/09/07 12:38:12;;;;;;;5.28;1.30;;;26.70;99.90;;;;;;5005159;28;20211;-81
2022/09/07 12:40:38;;;;;;;4.07;1.20;;;26.90;99.90;;;;;;5012304;28;20223;-82
2022/09/07 12:43:12;;;;;;;22.60;1.65;;;27.10;99.90;;;;;;5012649;28;20200;-82
2022/09/07 12:45:38;;;;;;;7.78;1.40;;;27.20;99.90;;;;;;5013944;28;20235;-82
2022/09/07 12:48:06;;;;;;;5.93;1.33;;;27.30;99.90;;;;;;5013751;28;20291;-82
2022/09/07 12:50:35;;;;;;;14.85;1.13;;;27.00;99.90;;;;;;5012628;28;20222;-81
2022/09/07 12:53:14;;;;;;;8.13;1.65;;;26.80;99.90;;;;;;5012073;28;20238;-81
2022/09/07 12:56:02;;;;;;;4.90;1.27;;;27.00;99.90;;;;;;5012039;28;20233;-81
2022/09/07 12:59:05;;;;;;;2.40;1.08;;;27.00;99.90;;;;;;5012260;28;20322;-81
2022/09/07 13:01:33;;;;;;;5.25;1.27;;;26.90;99.90;;;;;;4961224;28;20185;-81
2022/09/07 13:04:17;;;;;;;14.98;1.75;;;26.60;99.90;;;;;;5013430;28;20217;-82
2022/09/07 13:06:57;;;;;;;3.28;1.48;;;26.90;99.90;;;;;;5012023;28;20223;-81